createdAt,value
2019-03-18T00:02:30.178Z,0.60
2019-03-18T00:05:17.541Z,0.57
2019-03-18T00:08:05.180Z,0.60
2019-03-18T00:10:53.065Z,0.70
2019-03-18T00:13:48.602Z,0.70
2019-03-18T00:16:37.006Z,0.57
2019-03-18T00:19:28.180Z,0.70
2019-03-18T00:22:21.365Z,0.70
2019-03-18T00:25:15.068Z,0.60
2019-03-18T00:28:09.149Z,0.70
2019-03-18T00:31:03.093Z,0.60
2019-03-18T00:33:58.952Z,0.63
2019-03-18T00:36:47.297Z,0.90
2019-03-18T00:39:41.045Z,0.60
2019-03-18T00:42:29.811Z,0.60
2019-03-18T00:45:19.058Z,0.60
2019-03-18T00:48:07.415Z,0.80
2019-03-18T00:50:57.105Z,0.80
2019-03-18T00:53:52.678Z,0.60
2019-03-18T00:56:44.331Z,0.60
2019-03-18T00:59:33.686Z,0.60
2019-03-18T01:02:21.358Z,0.67
2019-03-18T01:05:14.824Z,0.60
2019-03-18T01:08:05.468Z,0.67
2019-03-18T01:11:27.758Z,0.80
2019-03-18T01:14:37.111Z,0.63
2019-03-18T01:17:32.173Z,0.60
2019-03-18T01:20:57.904Z,0.70
2019-03-18T01:23:57.727Z,0.70
2019-03-18T01:26:52.479Z,0.60
2019-03-18T01:29:50.506Z,0.90
2019-03-18T01:33:29.733Z,0.70
2019-03-18T01:36:41.477Z,0.67
2019-03-18T01:39:35.194Z,0.70
2019-03-18T01:45:44.811Z,0.70
2019-03-18T01:48:58.662Z,0.70
2019-03-18T01:52:01.431Z,0.80
2019-03-18T01:55:15.320Z,0.80
2019-03-18T01:58:52.436Z,0.70
2019-03-18T02:05:38.389Z,1.00
2019-03-18T02:08:42.463Z,1.10
2019-03-18T02:11:40.982Z,0.90
2019-03-18T02:14:31.805Z,0.87
2019-03-18T02:17:29.448Z,0.80
2019-03-18T02:20:45.378Z,0.90
2019-03-18T02:24:44.099Z,0.77
2019-03-18T02:27:59.705Z,0.93
2019-03-18T02:30:57.866Z,0.80
2019-03-18T02:34:01.460Z,0.90
2019-03-18T02:41:35.053Z,0.97
2019-03-18T02:45:14.437Z,0.90
2019-03-18T02:48:18.702Z,0.80
2019-03-18T02:51:34.045Z,0.97
2019-03-18T02:54:53.735Z,1.30
2019-03-18T02:58:14.045Z,0.87
2019-03-18T03:01:17.226Z,1.30
2019-03-18T03:04:11.395Z,0.97
2019-03-18T03:07:26.099Z,1.10
2019-03-18T03:10:16.238Z,1.00
2019-03-18T03:13:10.559Z,1.07
2019-03-18T03:16:26.305Z,1.00
2019-03-18T03:19:10.693Z,1.47
2019-03-18T03:22:15.856Z,0.80
2019-03-18T03:25:09.789Z,1.00
2019-03-18T03:28:02.600Z,1.10
2019-03-18T03:30:55.023Z,1.10
2019-03-18T03:33:54.289Z,1.10
2019-03-18T03:37:10.278Z,1.00
2019-03-18T03:40:07.520Z,1.20
2019-03-18T03:42:59.498Z,1.13
2019-03-18T03:46:00.935Z,1.30
2019-03-18T03:49:15.889Z,1.30
2019-03-18T03:52:11.267Z,1.00
2019-03-18T03:55:15.022Z,1.23
2019-03-18T03:58:31.982Z,1.40
2019-03-18T04:01:21.204Z,1.23
2019-03-18T04:04:10.166Z,1.73
2019-03-18T04:07:12.008Z,1.27
2019-03-18T04:10:05.060Z,1.20
2019-03-18T04:13:04.754Z,1.30
2019-03-18T04:16:04.671Z,1.37
2019-03-18T04:19:15.018Z,1.43
2019-03-18T04:22:04.101Z,1.03
2019-03-18T04:25:08.522Z,1.10
2019-03-18T04:27:58.638Z,1.20
2019-03-18T04:30:57.284Z,1.43
2019-03-18T04:34:09.254Z,1.37
2019-03-18T04:36:59.892Z,1.60
2019-03-18T04:39:55.494Z,1.20
2019-03-18T04:42:47.135Z,1.43
2019-03-18T04:45:42.080Z,1.17
2019-03-18T04:48:52.050Z,1.37
2019-03-18T04:51:45.496Z,1.20
2019-03-18T04:54:47.829Z,1.10
2019-03-18T04:57:45.085Z,1.00
2019-03-18T05:01:12.868Z,0.93
2019-03-18T05:04:07.763Z,1.17
2019-03-18T05:07:05.205Z,0.80
2019-03-18T05:10:37.276Z,1.10
2019-03-18T05:13:43.113Z,1.00
2019-03-18T05:16:54.576Z,1.17
2019-03-18T05:19:48.894Z,1.00
2019-03-18T05:23:20.669Z,1.10
2019-03-18T05:26:11.169Z,1.30
2019-03-18T05:32:37.454Z,1.30
2019-03-18T05:35:40.278Z,1.20
2019-03-18T05:38:32.678Z,1.40
2019-03-18T05:42:02.211Z,1.10
2019-03-18T05:44:55.570Z,1.63
2019-03-18T05:47:55.067Z,1.10
2019-03-18T05:51:19.387Z,1.27
2019-03-18T05:54:11.627Z,1.00
2019-03-18T05:57:30.767Z,1.20
2019-03-18T06:01:15.264Z,1.27
2019-03-18T06:04:33.878Z,1.20
2019-03-18T06:07:43.517Z,1.07
2019-03-18T06:10:54.062Z,0.90
2019-03-18T06:13:56.371Z,0.90
2019-03-18T06:16:46.579Z,1.00
2019-03-18T06:19:35.953Z,0.93
2019-03-18T06:22:36.521Z,1.20
2019-03-18T06:25:28.907Z,1.20
2019-03-18T06:29:03.008Z,1.47
2019-03-18T06:35:20.761Z,1.53
2019-03-18T06:38:19.749Z,1.40
2019-03-18T06:41:14.965Z,1.73
2019-03-18T06:44:30.884Z,1.90
2019-03-18T06:47:41.246Z,2.00
2019-03-18T06:50:57.526Z,1.60
2019-03-18T06:58:36.306Z,1.73
2019-03-18T07:01:23.688Z,1.40
2019-03-18T07:04:11.308Z,1.27
2019-03-18T07:06:59.124Z,1.60
2019-03-18T07:09:49.789Z,1.37
2019-03-18T07:12:37.525Z,1.20
2019-03-18T07:15:24.691Z,1.40
2019-03-18T07:18:17.989Z,1.50
2019-03-18T07:21:02.692Z,1.33
2019-03-18T07:23:51.346Z,1.30
2019-03-18T07:26:39.676Z,1.20
2019-03-18T07:29:27.869Z,1.50
2019-03-18T07:32:15.618Z,1.40
2019-03-18T07:35:03.446Z,1.53
2019-03-18T07:37:51.042Z,1.37
2019-03-18T07:40:39.024Z,1.23
2019-03-18T07:43:26.524Z,1.47
2019-03-18T07:46:14.483Z,1.30
2019-03-18T07:52:25.473Z,1.10
2019-03-18T08:41:02.570Z,0.60
2019-03-18T08:43:50.195Z,0.60
2019-03-18T08:50:37.944Z,0.60
2019-03-18T09:06:57.360Z,0.70
2019-03-18T09:13:33.596Z,0.73
2019-03-18T09:23:41.964Z,0.70
2019-03-18T09:26:29.658Z,0.67
2019-03-18T09:29:18.622Z,0.50
2019-03-18T09:32:09.597Z,0.60
2019-03-18T09:34:59.675Z,0.60
2019-03-18T09:37:47.455Z,0.70
2019-03-18T09:40:37.577Z,0.60
2019-03-18T09:43:26.306Z,0.60
2019-03-18T09:59:45.854Z,0.73
2019-03-18T10:09:57.096Z,0.70
2019-03-18T10:33:03.447Z,1.10
2019-03-18T10:39:38.622Z,0.80
2019-03-18T10:42:26.641Z,1.17
2019-03-18T10:45:14.423Z,0.80
2019-03-18T10:48:02.438Z,1.00
2019-03-18T10:50:51.310Z,0.93
2019-03-18T10:53:38.698Z,0.70
2019-03-18T10:56:25.975Z,0.80
2019-03-18T11:23:44.103Z,0.80
2019-03-18T11:34:05.283Z,0.60
2019-03-18T11:36:52.809Z,0.60
2019-03-18T11:39:41.173Z,0.63
2019-03-18T11:42:29.196Z,0.87
2019-03-18T11:55:26.403Z,0.73
2019-03-18T12:01:50.283Z,0.70
2019-03-18T12:44:00.817Z,0.83
2019-03-18T12:46:48.801Z,1.10
2019-03-18T12:49:36.888Z,0.70
2019-03-18T12:52:24.059Z,0.60
2019-03-18T12:55:11.737Z,0.70
2019-03-18T12:57:59.395Z,0.60
2019-03-18T13:00:47.271Z,0.50
2019-03-18T13:03:34.694Z,0.83
2019-03-18T13:06:23.513Z,0.67
2019-03-18T13:09:11.627Z,0.70
2019-03-18T13:12:01.429Z,0.80
2019-03-18T13:14:48.587Z,0.90
2019-03-18T13:17:49.316Z,0.80
2019-03-18T13:20:38.611Z,0.73
2019-03-18T13:23:26.619Z,0.70
2019-03-18T13:26:14.387Z,0.87
2019-03-18T13:29:02.349Z,0.80
2019-03-18T13:31:51.927Z,0.70
2019-03-18T13:34:39.363Z,1.00
2019-03-18T13:37:28.437Z,0.80
2019-03-18T13:40:29.462Z,0.80
2019-03-18T13:43:19.138Z,0.63
2019-03-18T13:46:07.047Z,0.80
2019-03-18T13:48:54.751Z,0.63
2019-03-18T13:51:42.532Z,0.63
2019-03-18T13:54:32.369Z,0.70
2019-03-18T13:57:22.190Z,0.80
2019-03-18T14:00:12.503Z,0.80
2019-03-18T14:03:04.308Z,0.70
2019-03-18T14:05:55.560Z,0.70
2019-03-18T14:08:46.323Z,0.70
2019-03-18T14:11:36.831Z,0.70
2019-03-18T14:14:26.508Z,0.73
2019-03-18T14:17:14.406Z,0.63
2019-03-18T14:20:02.570Z,0.60
2019-03-18T14:22:51.039Z,0.70
2019-03-18T14:25:38.605Z,0.80
2019-03-18T14:28:26.230Z,0.63
2019-03-18T14:31:13.917Z,0.70
2019-03-18T14:34:01.481Z,0.60
2019-03-18T14:36:51.970Z,0.70
2019-03-18T14:39:39.218Z,1.83
2019-03-18T14:42:27.281Z,1.93
2019-03-18T14:45:16.565Z,0.70
2019-03-18T14:48:04.492Z,0.67
2019-03-18T14:50:55.283Z,0.80
2019-03-18T14:53:42.521Z,0.80
2019-03-18T14:56:30.203Z,0.70
2019-03-18T14:59:17.862Z,0.70
2019-03-18T15:02:05.244Z,0.73
2019-03-18T15:04:55.743Z,0.60
2019-03-18T15:07:44.135Z,0.80
2019-03-18T15:10:31.922Z,0.70
2019-03-18T15:13:30.460Z,1.03
2019-03-18T15:16:08.488Z,0.70
2019-03-18T15:18:56.733Z,0.90
2019-03-18T15:21:57.587Z,0.93
2019-03-18T15:24:35.398Z,0.83
2019-03-18T15:27:22.604Z,0.70
2019-03-18T15:30:12.175Z,0.60
2019-03-18T15:33:00.529Z,0.87
2019-03-18T15:35:48.543Z,0.60
2019-03-18T15:38:36.105Z,0.90
2019-03-18T15:41:23.278Z,0.80
2019-03-18T16:36:33.256Z,0.70
2019-03-18T16:39:24.059Z,0.50
2019-03-18T16:42:11.951Z,0.47
2019-03-18T16:44:59.955Z,0.60
2019-03-18T16:47:48.399Z,0.40
2019-03-18T16:50:37.089Z,0.67
2019-03-18T16:53:24.846Z,0.60
2019-03-18T16:56:14.066Z,0.73
2019-03-18T16:59:02.238Z,0.50
2019-03-18T17:01:52.875Z,0.77
2019-03-18T17:04:40.628Z,0.60
2019-03-18T17:07:30.502Z,0.73
2019-03-18T17:10:18.424Z,0.60
2019-03-18T17:13:07.595Z,0.70
2019-03-18T17:15:57.861Z,0.53
2019-03-18T17:18:47.482Z,0.80
2019-03-18T17:21:34.796Z,0.70
2019-03-18T17:24:23.909Z,0.60
2019-03-18T17:27:14.547Z,0.80
2019-03-18T17:30:02.592Z,0.70
2019-03-18T17:32:51.817Z,0.70
2019-03-18T17:35:39.884Z,0.60
2019-03-18T17:38:28.017Z,0.73
2019-03-18T17:41:16.259Z,0.80
2019-03-18T17:47:39.450Z,0.80
2019-03-18T18:05:02.848Z,0.70
2019-03-18T18:11:08.879Z,1.00
2019-03-18T18:17:32.174Z,1.00
2019-03-18T18:27:05.077Z,0.90
2019-03-18T18:33:28.691Z,1.20
2019-03-18T18:39:39.694Z,1.17
2019-03-18T18:46:02.650Z,0.97
2019-03-18T18:48:50.304Z,1.10
2019-03-18T18:51:40.328Z,1.00
2019-03-18T18:54:27.910Z,1.00
2019-03-18T18:57:15.316Z,1.23
2019-03-18T19:00:04.452Z,1.00
2019-03-18T19:02:52.314Z,1.33
2019-03-18T19:05:39.818Z,1.10
2019-03-18T19:08:27.629Z,1.00
2019-03-18T19:11:15.711Z,1.37
2019-03-18T19:14:03.586Z,1.40
2019-03-18T19:16:51.196Z,1.10
2019-03-18T19:19:39.138Z,1.10
2019-03-18T19:22:26.708Z,1.30
2019-03-18T19:25:14.628Z,1.80
2019-03-18T19:28:02.255Z,2.73
2019-03-18T19:30:49.988Z,2.40
2019-03-18T19:33:37.654Z,2.10
2019-03-18T19:36:25.332Z,1.67
2019-03-18T19:39:13.911Z,1.40
2019-03-18T19:45:25.717Z,1.33
2019-03-18T19:51:37.237Z,1.20
2019-03-18T20:12:52.691Z,2.20
2019-03-18T20:15:40.239Z,1.63
2019-03-18T20:18:27.425Z,1.60
2019-03-18T20:30:16.791Z,1.27
2019-03-18T20:33:04.379Z,1.73
2019-03-18T20:35:51.481Z,1.43
2019-03-18T20:38:39.168Z,1.53
2019-03-18T20:44:14.962Z,1.30
2019-03-18T20:47:02.427Z,1.50
2019-03-18T20:49:51.896Z,1.63
2019-03-18T20:52:39.215Z,1.30
2019-03-18T20:55:26.667Z,1.30
2019-03-18T20:58:18.655Z,1.33
2019-03-18T21:01:06.409Z,1.07
2019-03-18T21:03:53.708Z,1.30
2019-03-18T21:06:41.180Z,1.10
2019-03-18T21:09:28.815Z,1.50
2019-03-18T21:15:00.327Z,1.60
2019-03-18T21:17:52.806Z,0.93
2019-03-18T21:24:28.012Z,1.60
2019-03-18T21:31:08.926Z,1.20
2019-03-18T21:33:57.052Z,1.30
2019-03-18T21:36:45.527Z,1.30
2019-03-18T21:43:35.055Z,1.13
2019-03-18T21:50:10.465Z,1.50
2019-03-18T21:56:46.329Z,1.40
2019-03-18T22:03:21.777Z,1.20
2019-03-18T22:23:29.702Z,1.30
2019-03-18T22:29:53.506Z,1.80
2019-03-18T22:32:41.924Z,1.60
2019-03-18T22:35:29.511Z,1.80
2019-03-18T22:38:17.148Z,1.70
2019-03-18T22:41:05.031Z,1.70
2019-03-18T22:43:52.199Z,1.60
2019-03-18T22:46:40.302Z,1.80
2019-03-18T22:49:27.650Z,1.30
2019-03-18T22:52:15.726Z,2.13
2019-03-18T22:55:03.485Z,1.87
2019-03-18T22:57:50.939Z,2.40
2019-03-18T23:00:49.886Z,2.47
2019-03-18T23:03:36.947Z,2.60
2019-03-18T23:06:24.747Z,2.23
2019-03-18T23:09:12.178Z,2.00
2019-03-18T23:12:00.224Z,2.50
2019-03-18T23:21:45.944Z,2.70
2019-03-18T23:31:18.510Z,3.20
2019-03-18T23:45:40.608Z,3.63
2019-03-18T23:55:40.290Z,5.33
